Airfield :







YOU CAN JOIN US ON...

 
LOGIN :

Register | Disclaimer

   EN    FR    IT 

 









Legend :    VFR   Marginal VFR   IFR   Intensive IFR   Very Intensive IFR
Visi :
Ceiling :
>= 8 km
>= 3000ft
5 to 8 km
1000 to 3000 ft
1500m to 5 km
500 to 1000 ft
800 to 1500m
200 to 500 ft
< 800m
< 200 ft
Symbols :   Thunderstorms  Fog  Heavy snow  Heavy precipitations  Wind > 20 kt







- Airport Elevation : 454 ft


KIZG - Eastern Slopes Regional

CURRENT METAR :
  • 181554Z AUTO 36004KT 2SM -SN SCT033 BKN040 OVC048 M08/M11 A2989 RMK AO2 SLP129 P0000 T10781106

EXPIRED METARs :
  • 181527Z AUTO 02004KT 1 1/2SM -SN FEW024 BKN034 OVC045 M08/M11 A2989 RMK AO2 P0000 T10781106
  • 181500Z AUTO 00000KT 2SM -SN BR FEW011 SCT025 OVC045 M08/M11 A2991 RMK AO2 P0000 T10831106
  • 181454Z AUTO 35004KT 1 3/4SM -SN BR FEW011 BKN023 OVC048 M08/M11 A2990 RMK AO2 SLP135 P0001 60002 T10831106 55011
  • 181442Z AUTO 35004KT 3SM -SN BR BKN023 BKN036 OVC048 M08/M11 A2990 RMK AO2 P0001 T10831106
  • 181426Z AUTO 03005KT 2SM -SN FEW018 OVC023 M08/M11 A2991 RMK AO2 P0001 T10831111
  • 181403Z AUTO 02005KT 1 1/4SM -SN BKN019 OVC027 M08/M11 A2991 RMK AO2 P0000 T10831111
  • 181354Z AUTO 01005KT 1 1/2SM -SN OVC026 M08/M11 A2991 RMK AO2 SLP139 P0001 T10831111
  • 181337Z AUTO 01004KT 2SM -SN BR BKN029 OVC037 M09/M11 A2992 RMK AO2 P0001 T10891106
  • 181326Z AUTO 02003KT 1SM -SN BR SCT012 BKN029 OVC037 M09/M11 A2992 RMK AO2 P0001 T10891106

TAF N/A
KZBW FIR / North America



MET'MAP, your aeronautical weather chart ! - Copyright ORBIFLY December 2007 - Disclaimer

ORBIFLY MET'MAP TEAM :

Programming & Development : Alexandra Zaïnal
Concept & Development : Baudouin d'Aumeries
Co-Development & Prog : Marc-Olivier Méhu
Technical & hardware support : Manuel Goepfert

Contact : metmap@orbifly.com




SOURCES & CREDITS :

   NOAA